Time;durP1;ratioP1;P1;durP2;ratioP2;P2;SDS_P1;SDS_P2;PMS_P1;PMS_P2;Temp;Humidity;BMP_temperature;BMP_pressure;BME280_temperature;BME280_humidity;BME280_pressure;Samples;Min_cycle;Max_cycle;Signal;HPM_P1;HPM_P2
2022/05/26 00:01:04;;;;;;;3.43;1.70;;;14.30;99.90;;;;;;5029211;28;20213;-90
2022/05/26 00:03:38;;;;;;;1.40;1.30;;;14.20;99.90;;;;;;5019388;28;20201;-89
2022/05/26 00:06:06;;;;;;;3.80;1.50;;;14.30;99.90;;;;;;5023045;28;20212;-89
2022/05/26 00:08:44;;;;;;;1.93;1.53;;;14.30;99.90;;;;;;5019351;28;20178;-89
2022/05/26 00:11:25;;;;;;;3.13;1.60;;;14.30;99.90;;;;;;5018914;28;20170;-89
2022/05/26 00:13:51;;;;;;;1.50;1.20;;;14.30;99.90;;;;;;5018597;28;20173;-90
2022/05/26 00:16:18;;;;;;;1.87;1.23;;;14.30;99.90;;;;;;5019055;28;20196;-90
2022/05/26 00:18:45;;;;;;;3.67;1.30;;;14.30;99.90;;;;;;5018344;28;20258;-89
2022/05/26 00:21:11;;;;;;;1.77;1.10;;;14.20;99.90;;;;;;5018402;28;20183;-90
2022/05/26 00:23:36;;;;;;;1.47;1.17;;;14.10;99.90;;;;;;5018489;28;20261;-89
2022/05/26 00:26:03;;;;;;;3.63;1.40;;;14.00;99.90;;;;;;5018082;28;20309;-89
2022/05/26 00:28:30;;;;;;;5.70;1.40;;;13.90;99.90;;;;;;5018473;28;20208;-89
2022/05/26 00:30:56;;;;;;;1.60;1.40;;;13.80;99.90;;;;;;5018546;28;20221;-89
2022/05/26 00:33:22;;;;;;;2.17;1.57;;;13.80;99.90;;;;;;5018248;28;20190;-90
2022/05/26 00:35:47;;;;;;;1.50;1.33;;;13.50;99.90;;;;;;5018209;28;20205;-89
2022/05/26 00:38:14;;;;;;;1.67;1.43;;;13.50;99.90;;;;;;5018151;28;20220;-89
2022/05/26 00:40:41;;;;;;;2.43;1.50;;;13.50;99.90;;;;;;5017824;28;20185;-89
2022/05/26 00:43:08;;;;;;;1.83;1.40;;;13.50;99.90;;;;;;5017922;28;20217;-90
2022/05/26 00:45:39;;;;;;;1.47;1.20;;;13.50;99.90;;;;;;5017529;28;20214;-89
2022/05/26 00:48:19;;;;;;;1.63;1.40;;;13.50;99.90;;;;;;5017869;28;20191;-89
2022/05/26 00:50:53;;;;;;;2.10;1.30;;;13.50;99.90;;;;;;5017829;28;20184;-89
2022/05/26 00:53:27;;;;;;;4.23;1.37;;;13.50;99.90;;;;;;5018012;28;20173;-89
2022/05/26 00:56:07;;;;;;;1.40;1.30;;;13.40;99.90;;;;;;5017355;28;20213;-90
2022/05/26 00:59:15;;;;;;;1.63;1.30;;;13.40;99.90;;;;;;5034108;28;20176;-90
2022/05/26 01:01:41;;;;;;;1.70;1.20;;;13.40;99.90;;;;;;5017899;28;20184;-89
2022/05/26 01:04:16;;;;;;;2.47;1.47;;;13.30;99.90;;;;;;5034094;28;20202;-89
2022/05/26 01:06:52;;;;;;;1.63;1.40;;;13.20;99.90;;;;;;5017538;28;20294;-89
2022/05/26 01:09:20;;;;;;;2.50;1.30;;;13.20;99.90;;;;;;5017628;28;20204;-89
2022/05/26 01:11:46;;;;;;;4.20;1.40;;;13.10;99.90;;;;;;5017592;28;20184;-89
2022/05/26 01:14:39;;;;;;;1.30;1.20;;;13.10;99.90;;;;;;5016721;28;20270;-89
2022/05/26 01:17:05;;;;;;;1.80;1.30;;;13.10;99.90;;;;;;5033861;28;20167;-89
2022/05/26 01:19:58;;;;;;;2.03;1.40;;;13.10;99.90;;;;;;5017612;28;20250;-89
2022/05/26 01:22:36;;;;;;;2.90;1.27;;;13.10;99.90;;;;;;5017126;28;20209;-89
2022/05/26 01:29:08;;;;;;;3.87;1.30;;;12.90;99.90;;;;;;5033587;28;20260;-89
2022/05/26 01:31:52;;;;;;;2.17;1.23;;;12.90;99.90;;;;;;5017126;28;20188;-89
2022/05/26 01:34:42;;;;;;;2.03;1.40;;;12.80;99.90;;;;;;5016834;28;20201;-89
2022/05/26 01:37:20;;;;;;;1.60;1.33;;;12.70;99.90;;;;;;5017209;28;20191;-89
2022/05/26 01:40:15;;;;;;;1.93;1.20;;;12.80;99.90;;;;;;5017224;28;20176;-89
2022/05/26 01:42:43;;;;;;;2.37;1.10;;;12.80;99.90;;;;;;4999216;28;20267;-89
2022/05/26 01:45:43;;;;;;;2.50;1.50;;;12.80;99.90;;;;;;5016440;28;20215;-89
2022/05/26 01:48:20;;;;;;;1.57;1.30;;;12.70;99.90;;;;;;5009478;28;20189;-89
2022/05/26 01:50:54;;;;;;;2.27;1.30;;;12.80;99.90;;;;;;5016873;28;20252;-90
2022/05/26 01:53:45;;;;;;;2.30;1.27;;;12.80;99.90;;;;;;5033545;28;20184;-89
2022/05/26 01:56:24;;;;;;;1.30;1.20;;;12.90;99.90;;;;;;5016288;28;20188;-89
2022/05/26 01:59:06;;;;;;;1.90;1.50;;;12.80;99.90;;;;;;5016472;28;20189;-89
2022/05/26 02:01:38;;;;;;;1.50;1.40;;;12.80;99.90;;;;;;5016550;28;20286;-89
2022/05/26 02:04:13;;;;;;;1.97;1.20;;;12.70;99.90;;;;;;5016305;28;20202;-89
2022/05/26 02:06:45;;;;;;;1.37;1.00;;;12.70;99.90;;;;;;5016721;28;20186;-89
2022/05/26 02:09:15;;;;;;;1.67;1.57;;;12.60;99.90;;;;;;5016657;28;20258;-89
2022/05/26 02:11:56;;;;;;;1.40;1.30;;;12.50;99.90;;;;;;5016716;28;20178;-90
2022/05/26 02:14:38;;;;;;;2.57;1.47;;;12.50;99.90;;;;;;5015996;28;20202;-89
2022/05/26 02:17:11;;;;;;;3.80;1.50;;;12.50;99.90;;;;;;5016119;28;20216;-89
2022/05/26 02:19:39;;;;;;;1.67;1.57;;;12.40;99.90;;;;;;5032661;28;20618;-89
2022/05/26 02:22:11;;;;;;;4.00;1.43;;;12.40;99.90;;;;;;5016259;28;20186;-89
2022/05/26 02:24:44;;;;;;;3.00;1.37;;;12.40;99.90;;;;;;5016086;28;20268;-89
2022/05/26 02:27:10;;;;;;;2.07;1.50;;;12.50;99.90;;;;;;5015279;28;20261;-89
2022/05/26 02:29:51;;;;;;;3.20;1.30;;;12.40;99.90;;;;;;5015986;28;20188;-89
2022/05/26 02:32:37;;;;;;;4.37;1.20;;;12.40;99.90;;;;;;5015901;28;20166;-89
2022/05/26 02:35:11;;;;;;;1.10;1.00;;;12.30;99.90;;;;;;5015601;28;20723;-89
2022/05/26 02:37:39;;;;;;;5.13;1.23;;;12.40;99.90;;;;;;5015880;28;20224;-89
2022/05/26 02:40:09;;;;;;;1.43;1.33;;;12.40;99.90;;;;;;5015231;28;20388;-89
2022/05/26 02:42:47;;;;;;;2.23;1.43;;;12.30;99.90;;;;;;5015776;28;20187;-89
2022/05/26 02:45:15;;;;;;;1.60;1.30;;;12.30;99.90;;;;;;5015724;28;20618;-89
2022/05/26 02:48:12;;;;;;;2.40;1.40;;;12.30;99.90;;;;;;5015759;28;20183;-89
2022/05/26 02:50:45;;;;;;;1.83;1.30;;;12.40;99.90;;;;;;5015915;28;20181;-89
2022/05/26 02:53:31;;;;;;;2.17;1.47;;;12.40;99.90;;;;;;5015825;28;20203;-89
2022/05/26 02:56:22;;;;;;;1.37;1.27;;;12.40;99.90;;;;;;5015430;28;20202;-89
2022/05/26 02:59:05;;;;;;;1.23;1.20;;;12.40;99.90;;;;;;5015482;28;20173;-89
2022/05/26 03:01:40;;;;;;;5.00;1.30;;;12.40;99.90;;;;;;5015572;28;20236;-89
2022/05/26 03:04:16;;;;;;;3.83;1.57;;;12.30;99.90;;;;;;5015275;28;20204;-90
2022/05/26 03:06:54;;;;;;;1.67;1.17;;;12.30;99.90;;;;;;5015581;28;20194;-89
2022/05/26 03:09:21;;;;;;;3.87;1.30;;;12.30;99.90;;;;;;5015646;28;20166;-89
2022/05/26 03:11:53;;;;;;;2.07;1.10;;;12.20;99.90;;;;;;5016110;28;20192;-89
2022/05/26 03:14:20;;;;;;;1.40;1.30;;;12.20;99.90;;;;;;5017298;28;20201;-89
2022/05/26 03:16:46;;;;;;;1.80;1.10;;;12.20;99.90;;;;;;5017387;28;20229;-89
2022/05/26 03:19:13;;;;;;;1.50;1.40;;;12.20;99.90;;;;;;5015323;28;20273;-89
2022/05/26 03:21:39;;;;;;;2.57;1.27;;;12.20;99.90;;;;;;5015365;28;20181;-89
2022/05/26 03:24:06;;;;;;;3.53;1.47;;;12.10;99.90;;;;;;5015281;28;20224;-89
2022/05/26 03:26:32;;;;;;;2.10;1.20;;;12.10;99.90;;;;;;5015129;28;20202;-89
2022/05/26 03:28:58;;;;;;;3.03;1.33;;;12.10;99.90;;;;;;5031482;28;20179;-90
2022/05/26 03:31:24;;;;;;;1.60;1.30;;;12.10;99.90;;;;;;5015119;28;20178;-89
2022/05/26 03:42:06;;;;;;;1.50;1.40;;;12.10;99.90;;;;;;5031552;28;20698;-90
2022/05/26 03:44:34;;;;;;;1.43;1.20;;;12.00;99.90;;;;;;5014813;28;20198;-89
2022/05/26 03:47:01;;;;;;;1.60;1.33;;;12.00;99.90;;;;;;5014814;28;20223;-89
2022/05/26 03:49:27;;;;;;;1.40;1.30;;;12.00;99.90;;;;;;5014798;28;20607;-89
2022/05/26 03:51:53;;;;;;;3.63;1.50;;;11.90;99.90;;;;;;5031669;28;20187;-89
2022/05/26 03:54:19;;;;;;;1.60;1.50;;;12.00;99.90;;;;;;5014851;28;20204;-89
2022/05/26 03:56:45;;;;;;;2.17;1.50;;;11.90;99.90;;;;;;5014324;28;20244;-89
2022/05/26 03:59:11;;;;;;;1.43;1.33;;;11.80;99.90;;;;;;5015128;28;20180;-89
2022/05/26 04:01:39;;;;;;;1.70;1.60;;;11.60;99.90;;;;;;5014532;28;20174;-89
2022/05/26 04:04:07;;;;;;;2.33;1.83;;;11.60;99.90;;;;;;5014943;28;20208;-89
2022/05/26 04:06:33;;;;;;;1.33;1.23;;;11.60;99.90;;;;;;5014868;28;20294;-89
2022/05/26 04:08:59;;;;;;;1.90;1.50;;;11.60;99.90;;;;;;5014869;28;20183;-89
2022/05/26 04:11:25;;;;;;;1.53;1.40;;;11.70;99.90;;;;;;5014829;28;20179;-89
2022/05/26 04:13:53;;;;;;;2.50;1.40;;;11.60;99.90;;;;;;5014656;28;20190;-89
2022/05/26 04:16:20;;;;;;;1.93;1.30;;;11.60;99.90;;;;;;5014655;28;20525;-89
2022/05/26 04:18:46;;;;;;;3.53;1.40;;;11.70;99.90;;;;;;5014662;28;20183;-89
2022/05/26 04:21:13;;;;;;;2.00;1.30;;;11.70;99.90;;;;;;5015113;28;20711;-89
2022/05/26 04:23:39;;;;;;;2.13;1.40;;;11.80;99.90;;;;;;5014700;28;20198;-89
2022/05/26 04:26:07;;;;;;;1.57;1.40;;;11.80;99.90;;;;;;5014595;28;20207;-89
2022/05/26 04:28:33;;;;;;;2.40;1.50;;;11.80;99.90;;;;;;5015193;28;20175;-89
2022/05/26 04:31:18;;;;;;;1.37;1.23;;;11.80;99.90;;;;;;5014793;28;20323;-91
2022/05/26 04:33:49;;;;;;;1.60;1.50;;;11.80;99.90;;;;;;5014422;28;20182;-90
2022/05/26 04:36:15;;;;;;;1.83;1.30;;;11.90;99.90;;;;;;5014459;28;20172;-90
2022/05/26 04:38:41;;;;;;;2.63;1.00;;;12.00;99.90;;;;;;5014873;28;20187;-89
2022/05/26 04:41:07;;;;;;;2.07;1.40;;;12.00;99.90;;;;;;5015069;28;20254;-90
2022/05/26 04:43:34;;;;;;;2.27;1.50;;;12.10;99.90;;;;;;5014502;28;20181;-90
2022/05/26 04:46:02;;;;;;;1.73;1.27;;;12.10;99.90;;;;;;5014686;28;20215;-89
2022/05/26 04:48:28;;;;;;;3.93;1.73;;;12.20;99.90;;;;;;5014648;28;20179;-90
2022/05/26 04:50:54;;;;;;;1.57;1.30;;;12.30;99.90;;;;;;5018046;28;20261;-89
2022/05/26 04:53:20;;;;;;;1.50;1.40;;;12.30;99.90;;;;;;5018198;28;20193;-89
2022/05/26 04:55:59;;;;;;;2.27;1.37;;;12.40;99.90;;;;;;5018041;28;20263;-89
2022/05/26 04:58:25;;;;;;;4.40;1.70;;;12.50;99.90;;;;;;5017910;28;20187;-89
2022/05/26 05:00:51;;;;;;;1.30;1.20;;;12.50;99.90;;;;;;5017698;28;20182;-89
2022/05/26 05:03:17;;;;;;;3.50;1.53;;;12.60;99.90;;;;;;5018159;28;20183;-90
2022/05/26 05:05:43;;;;;;;1.53;1.33;;;12.60;99.90;;;;;;5017690;28;20207;-89
2022/05/26 05:08:09;;;;;;;2.23;1.40;;;12.70;99.90;;;;;;5034120;28;20246;-89
2022/05/26 05:10:35;;;;;;;2.30;1.53;;;12.80;99.90;;;;;;5017594;28;20189;-89
2022/05/26 05:13:01;;;;;;;1.77;1.37;;;12.90;99.90;;;;;;5022008;28;20192;-89
2022/05/26 05:15:35;;;;;;;2.67;1.37;;;13.00;99.90;;;;;;5022359;28;20204;-89
2022/05/26 05:18:01;;;;;;;1.43;1.23;;;13.00;99.90;;;;;;5033889;28;20202;-90
2022/05/26 05:20:27;;;;;;;1.80;1.30;;;13.10;99.90;;;;;;5041590;28;20184;-89
2022/05/26 05:23:00;;;;;;;1.30;1.20;;;13.10;99.90;;;;;;5029559;28;20184;-90
2022/05/26 05:25:32;;;;;;;2.53;1.40;;;13.20;99.90;;;;;;5022981;28;20224;-89
2022/05/26 05:28:02;;;;;;;2.73;1.40;;;13.30;99.90;;;;;;4997811;28;20269;-89
2022/05/26 05:30:40;;;;;;;2.03;1.20;;;13.40;99.90;;;;;;4997753;28;20199;-89
2022/05/26 05:33:17;;;;;;;1.47;1.37;;;13.50;99.90;;;;;;5030532;28;20190;-89
2022/05/26 05:36:12;;;;;;;1.83;1.30;;;13.70;99.90;;;;;;4997563;28;20210;-89
2022/05/26 05:38:40;;;;;;;1.50;1.37;;;13.80;99.90;;;;;;4998105;28;20195;-90
2022/05/26 05:41:07;;;;;;;3.23;1.40;;;14.00;99.90;;;;;;4997690;28;20226;-89
2022/05/26 05:43:35;;;;;;;2.57;1.30;;;14.20;99.90;;;;;;4997914;28;20186;-89
2022/05/26 05:46:04;;;;;;;2.67;1.20;;;14.30;99.90;;;;;;5002142;28;20220;-89
2022/05/26 05:48:31;;;;;;;1.73;1.30;;;14.40;99.90;;;;;;4997368;28;20192;-89
2022/05/26 05:50:57;;;;;;;2.03;1.50;;;14.50;99.90;;;;;;4997128;28;20191;-89
2022/05/26 05:53:24;;;;;;;2.30;1.23;;;14.70;99.90;;;;;;5030294;28;20186;-89
2022/05/26 05:55:50;;;;;;;2.87;1.40;;;14.80;99.90;;;;;;5013174;28;20678;-89
2022/05/26 05:58:16;;;;;;;1.40;1.30;;;14.90;99.90;;;;;;4997155;28;20227;-89
2022/05/26 06:00:43;;;;;;;1.10;1.00;;;15.00;99.90;;;;;;4997885;28;20558;-89
2022/05/26 06:03:12;;;;;;;1.43;1.33;;;15.10;99.90;;;;;;4999251;28;20197;-89
2022/05/26 06:05:40;;;;;;;2.83;1.20;;;15.30;99.90;;;;;;5014255;28;20217;-90
2022/05/26 06:08:06;;;;;;;2.47;1.40;;;15.50;99.90;;;;;;4997735;28;20242;-88
2022/05/26 06:10:32;;;;;;;1.97;1.30;;;15.60;99.90;;;;;;4997561;28;20244;-89
2022/05/26 06:12:59;;;;;;;1.57;1.30;;;15.80;99.90;;;;;;5014103;28;20178;-89
2022/05/26 06:15:26;;;;;;;3.27;1.37;;;16.00;99.90;;;;;;5039972;28;20197;-89
2022/05/26 06:17:52;;;;;;;1.67;1.40;;;16.10;99.90;;;;;;5042376;28;20186;-89
2022/05/26 06:20:19;;;;;;;2.33;1.63;;;16.10;99.90;;;;;;5019009;28;20226;-89
2022/05/26 06:22:46;;;;;;;2.10;1.40;;;16.30;99.90;;;;;;5016283;28;20179;-89
2022/05/26 06:25:33;;;;;;;1.90;1.17;;;16.60;99.90;;;;;;5017614;28;20289;-89
2022/05/26 06:30:43;;;;;;;2.00;1.10;;;16.80;99.90;;;;;;5032876;28;20182;-89
2022/05/26 06:38:45;;;;;;;0.93;0.93;;;17.00;99.90;;;;;;5038539;28;20178;-88
2022/05/26 06:43:58;;;;;;;3.00;1.00;;;17.10;99.90;;;;;;5053057;28;20205;-89
2022/05/26 06:46:25;;;;;;;1.93;1.00;;;17.20;99.90;;;;;;5050971;28;20189;-90
2022/05/26 06:48:50;;;;;;;1.37;1.07;;;17.20;99.90;;;;;;5038084;28;20178;-89
2022/05/26 06:51:16;;;;;;;1.83;1.17;;;17.40;99.90;;;;;;5035724;28;20188;-88
2022/05/26 06:53:42;;;;;;;1.57;0.97;;;17.50;99.90;;;;;;5035959;28;20178;-89
2022/05/26 06:56:09;;;;;;;2.72;1.10;;;17.60;99.90;;;;;;5018611;28;20194;-89
2022/05/26 06:58:36;;;;;;;3.17;1.23;;;17.60;99.90;;;;;;5030165;28;20186;-88
2022/05/26 07:01:02;;;;;;;3.63;1.13;;;17.70;99.90;;;;;;5032164;28;20204;-89
2022/05/26 07:03:28;;;;;;;1.77;0.90;;;17.70;99.90;;;;;;5016199;28;20203;-88
2022/05/26 07:05:54;;;;;;;2.95;1.10;;;17.80;99.90;;;;;;5015737;28;20254;-89
2022/05/26 07:08:20;;;;;;;3.13;0.90;;;18.00;99.90;;;;;;5015513;28;20175;-89
2022/05/26 07:10:47;;;;;;;2.13;1.00;;;18.10;99.90;;;;;;5016547;28;20178;-89
2022/05/26 07:13:14;;;;;;;1.27;0.98;;;18.20;99.90;;;;;;5050997;28;20207;-89
2022/05/26 07:15:40;;;;;;;1.55;0.90;;;18.40;99.90;;;;;;5035489;28;20194;-89
2022/05/26 07:18:07;;;;;;;1.60;0.90;;;18.50;99.90;;;;;;5048866;28;20275;-89
2022/05/26 07:20:36;;;;;;;1.48;1.00;;;18.50;99.90;;;;;;5021290;28;20178;-90
2022/05/26 07:23:04;;;;;;;1.65;1.15;;;18.60;99.90;;;;;;5024112;28;20214;-88
2022/05/26 07:25:30;;;;;;;1.75;0.95;;;18.70;99.90;;;;;;5012629;28;20285;-89
2022/05/26 07:27:56;;;;;;;4.60;0.95;;;18.90;99.90;;;;;;5042339;28;20174;-89
2022/05/26 07:30:22;;;;;;;1.42;0.80;;;19.00;99.90;;;;;;5017708;28;20174;-89
2022/05/26 07:32:48;;;;;;;1.10;0.75;;;19.10;99.90;;;;;;5002479;28;20182;-89
2022/05/26 07:35:14;;;;;;;1.75;0.80;;;19.20;99.90;;;;;;5022490;28;20300;-89
2022/05/26 07:43:09;;;;;;;0.80;0.80;;;19.10;99.90;;;;;;5030011;28;20181;-90
2022/05/26 07:45:36;;;;;;;3.97;0.93;;;19.00;99.90;;;;;;5010602;28;20206;-88
2022/05/26 07:48:05;;;;;;;1.00;0.80;;;19.00;99.90;;;;;;5017380;28;20257;-89
2022/05/26 07:50:32;;;;;;;2.60;0.98;;;19.00;99.90;;;;;;5015022;28;20270;-89
2022/05/26 07:52:58;;;;;;;2.40;0.80;;;19.20;99.90;;;;;;5031089;28;20309;-89
2022/05/26 07:55:24;;;;;;;1.70;0.80;;;19.10;99.90;;;;;;5014610;28;20269;-89
2022/05/26 07:57:50;;;;;;;4.22;1.00;;;19.10;99.90;;;;;;5015364;28;20179;-89
2022/05/26 08:01:07;;;;;;;1.17;0.80;;;19.10;99.90;;;;;;5031752;28;20227;-88
2022/05/26 08:03:34;;;;;;;1.73;0.70;;;19.10;99.90;;;;;;5016753;28;20183;-86
2022/05/26 08:06:01;;;;;;;2.28;0.98;;;18.90;99.90;;;;;;5033081;28;20202;-89
2022/05/26 08:08:33;;;;;;;2.13;0.80;;;18.90;99.90;;;;;;5015256;28;20187;-90
2022/05/26 08:10:59;;;;;;;2.13;1.00;;;19.00;99.90;;;;;;5015105;28;20197;-89
2022/05/26 08:13:26;;;;;;;1.25;0.80;;;19.10;99.90;;;;;;5015914;28;20179;-89
2022/05/26 08:15:52;;;;;;;1.60;0.70;;;19.00;99.90;;;;;;5016979;28;20194;-89
2022/05/26 08:18:19;;;;;;;3.40;0.80;;;19.20;99.90;;;;;;5016829;28;20183;-90
2022/05/26 08:20:45;;;;;;;2.15;0.70;;;19.50;99.90;;;;;;5017186;28;20179;-89
2022/05/26 08:23:12;;;;;;;1.90;0.90;;;19.90;99.90;;;;;;5015588;28;20244;-90
2022/05/26 08:25:39;;;;;;;2.33;1.00;;;20.30;99.90;;;;;;5015774;28;20215;-90
2022/05/26 08:28:05;;;;;;;1.42;0.80;;;20.60;99.90;;;;;;5039546;28;20184;-90
2022/05/26 08:30:31;;;;;;;1.27;0.80;;;20.90;99.90;;;;;;5032442;28;20175;-89
2022/05/26 08:32:57;;;;;;;0.95;0.73;;;21.10;99.90;;;;;;5035114;28;20185;-88
2022/05/26 08:35:24;;;;;;;1.13;0.82;;;21.20;99.90;;;;;;5018530;28;20204;-90
2022/05/26 08:37:50;;;;;;;1.88;0.85;;;21.30;99.90;;;;;;5019119;28;20182;-90
2022/05/26 08:40:51;;;;;;;0.82;0.80;;;21.30;99.90;;;;;;5035046;28;20186;-89
2022/05/26 08:43:21;;;;;;;1.83;0.70;;;21.20;99.90;;;;;;5019059;28;20175;-89
2022/05/26 08:45:52;;;;;;;2.42;0.90;;;21.10;99.90;;;;;;5018243;28;20219;-89
2022/05/26 08:48:50;;;;;;;0.75;0.68;;;20.90;99.90;;;;;;5028215;28;20191;-90
2022/05/26 08:51:45;;;;;;;1.63;1.25;;;20.70;99.90;;;;;;4982804;28;20202;-89
2022/05/26 08:54:19;;;;;;;0.90;0.70;;;20.50;99.90;;;;;;4999138;28;20210;-90
2022/05/26 08:56:47;;;;;;;0.77;0.68;;;20.50;99.90;;;;;;5019743;28;20177;-90
2022/05/26 08:59:18;;;;;;;1.48;0.80;;;20.80;99.90;;;;;;5035991;28;20183;-90
2022/05/26 09:01:45;;;;;;;1.15;0.70;;;20.90;99.90;;;;;;5018757;28;20229;-90
2022/05/26 09:04:11;;;;;;;0.70;0.70;;;20.90;99.90;;;;;;5018055;28;20206;-90
2022/05/26 09:15:16;;;;;;;2.33;0.70;;;20.70;99.90;;;;;;5026288;28;20214;-89
2022/05/26 09:17:42;;;;;;;1.05;0.80;;;20.40;99.90;;;;;;5017977;28;20179;-90
2022/05/26 09:20:34;;;;;;;2.25;0.88;;;20.20;99.90;;;;;;5018021;28;20266;-90
2022/05/26 09:23:07;;;;;;;1.48;0.70;;;20.30;99.90;;;;;;5012405;28;20717;-89
2022/05/26 09:25:46;;;;;;;1.92;0.80;;;20.40;99.90;;;;;;5017959;28;20206;-90
2022/05/26 09:28:25;;;;;;;1.08;0.85;;;20.60;99.90;;;;;;5018000;28;20186;-90
2022/05/26 09:30:51;;;;;;;0.70;0.65;;;20.70;99.90;;;;;;5017796;28;20198;-90
2022/05/26 09:33:31;;;;;;;1.38;0.70;;;20.80;99.90;;;;;;5017657;28;20263;-90
2022/05/26 09:36:23;;;;;;;1.00;0.60;;;20.90;99.90;;;;;;5017071;28;20208;-91
2022/05/26 09:38:49;;;;;;;1.75;0.75;;;20.90;99.90;;;;;;5017736;28;20186;-90
2022/05/26 09:41:16;;;;;;;2.75;0.70;;;20.80;99.90;;;;;;5017566;28;20183;-90
2022/05/26 09:43:59;;;;;;;1.60;0.70;;;20.60;99.90;;;;;;5017844;28;20184;-89
2022/05/26 09:46:27;;;;;;;1.77;0.80;;;20.60;99.90;;;;;;5017302;28;20206;-88
2022/05/26 09:49:12;;;;;;;0.70;0.60;;;20.50;99.90;;;;;;5017507;28;20174;-88
2022/05/26 09:51:47;;;;;;;0.60;0.60;;;20.40;99.90;;;;;;5010933;28;20170;-88
2022/05/26 09:54:29;;;;;;;1.40;0.82;;;20.20;99.90;;;;;;5037101;28;20200;-88
2022/05/26 09:56:55;;;;;;;1.10;0.70;;;20.20;99.90;;;;;;5037324;28;20182;-88
2022/05/26 09:59:24;;;;;;;1.02;0.73;;;20.10;99.90;;;;;;5036815;28;20677;-88
2022/05/26 10:01:56;;;;;;;1.63;0.68;;;20.00;99.90;;;;;;5037515;28;20182;-89
2022/05/26 10:04:22;;;;;;;1.05;0.75;;;19.80;99.90;;;;;;5035951;28;20197;-90
2022/05/26 10:06:57;;;;;;;1.30;0.73;;;19.80;99.90;;;;;;5037070;28;20216;-90
2022/05/26 10:09:49;;;;;;;0.50;0.50;;;20.00;99.90;;;;;;5037176;28;20174;-90
2022/05/26 10:12:24;;;;;;;1.75;0.93;;;20.10;99.90;;;;;;5014288;28;20181;-90
2022/05/26 10:15:35;;;;;;;2.35;0.77;;;20.30;99.90;;;;;;5036598;28;20201;-90
2022/05/26 10:18:07;;;;;;;2.47;0.80;;;20.30;99.90;;;;;;4980068;28;20282;-90
2022/05/26 10:20:39;;;;;;;0.95;0.80;;;20.30;99.90;;;;;;5030137;28;20193;-90
2022/05/26 10:23:34;;;;;;;0.80;0.80;;;20.30;99.90;;;;;;5036468;28;20198;-91
2022/05/26 10:26:38;;;;;;;1.45;0.57;;;20.50;99.90;;;;;;5036465;28;20296;-90
2022/05/26 10:29:09;;;;;;;1.70;0.88;;;20.70;99.90;;;;;;5053217;28;20162;-89
2022/05/26 10:31:49;;;;;;;1.92;0.80;;;20.80;99.90;;;;;;5037191;28;20182;-90
2022/05/26 10:34:57;;;;;;;1.42;1.00;;;20.70;99.90;;;;;;5036216;28;20197;-90
2022/05/26 10:37:41;;;;;;;1.75;0.80;;;20.60;99.90;;;;;;5006714;28;20182;-89
2022/05/26 10:40:34;;;;;;;0.70;0.70;;;20.50;99.90;;;;;;5036278;28;20197;-90
2022/05/26 10:43:04;;;;;;;1.48;0.75;;;20.30;99.90;;;;;;5036514;28;20162;-90
2022/05/26 10:45:38;;;;;;;0.82;0.82;;;20.20;99.90;;;;;;5035613;28;20233;-90
2022/05/26 10:48:24;;;;;;;1.45;0.82;;;20.20;99.90;;;;;;5053359;28;20200;-90
2022/05/26 10:50:57;;;;;;;2.00;0.82;;;20.30;99.90;;;;;;5035999;28;20213;-90
2022/05/26 10:53:52;;;;;;;2.33;0.75;;;20.30;99.90;;;;;;5036084;28;20184;-90
2022/05/26 10:57:06;;;;;;;1.75;0.80;;;20.20;99.90;;;;;;5023014;28;20269;-90
2022/05/26 10:59:59;;;;;;;0.73;0.70;;;20.20;99.90;;;;;;5019083;28;20328;-90
2022/05/26 11:02:35;;;;;;;1.58;0.77;;;20.20;99.90;;;;;;5015919;28;20163;-90
2022/05/26 11:05:03;;;;;;;0.95;0.63;;;20.20;99.90;;;;;;5015483;28;20198;-90
2022/05/26 11:07:35;;;;;;;1.98;0.68;;;20.00;99.90;;;;;;5021112;28;20214;-90
2022/05/26 11:10:11;;;;;;;2.15;1.00;;;20.00;99.90;;;;;;5015400;28;20178;-89
2022/05/26 11:12:50;;;;;;;1.80;0.93;;;19.90;99.90;;;;;;5015817;28;20171;-90
2022/05/26 11:18:43;;;;;;;2.53;0.80;;;19.90;99.90;;;;;;5045728;28;20240;-90
2022/05/26 11:21:14;;;;;;;1.73;0.90;;;19.90;99.90;;;;;;5035658;28;20174;-89
2022/05/26 11:23:41;;;;;;;1.45;0.80;;;19.80;99.90;;;;;;5020779;28;20257;-90
2022/05/26 11:26:35;;;;;;;1.92;0.90;;;19.80;99.90;;;;;;5048571;28;20308;-90
2022/05/26 11:29:25;;;;;;;1.08;0.85;;;19.70;99.90;;;;;;5052272;28;20217;-90
2022/05/26 11:38:00;;;;;;;1.13;0.77;;;19.80;99.90;;;;;;5040595;28;20258;-90
2022/05/26 11:40:55;;;;;;;1.05;0.80;;;19.70;99.90;;;;;;5052122;28;20200;-89
2022/05/26 11:43:39;;;;;;;1.30;0.73;;;19.70;99.90;;;;;;5035556;28;20220;-91
2022/05/26 11:46:09;;;;;;;1.85;1.00;;;19.80;99.90;;;;;;5035130;28;20209;-90
2022/05/26 11:49:14;;;;;;;0.98;0.77;;;19.90;99.90;;;;;;5037321;28;20174;-90
2022/05/26 11:51:42;;;;;;;0.80;0.80;;;19.90;99.90;;;;;;5015723;28;20166;-90
2022/05/26 11:54:09;;;;;;;0.82;0.80;;;20.00;99.90;;;;;;5049687;28;20202;-90
2022/05/26 11:56:40;;;;;;;1.35;0.80;;;19.90;99.90;;;;;;4996069;28;20179;-90
2022/05/26 11:59:23;;;;;;;1.00;0.90;;;19.80;99.90;;;;;;4998595;28;20186;-90
2022/05/26 12:01:58;;;;;;;0.63;0.63;;;19.80;99.90;;;;;;5049517;28;20182;-89
2022/05/26 12:04:49;;;;;;;0.85;0.65;;;19.70;99.90;;;;;;5025054;28;20273;-90
2022/05/26 12:07:18;;;;;;;1.67;0.70;;;19.70;99.90;;;;;;5027132;28;20195;-90
2022/05/26 12:09:55;;;;;;;2.13;0.80;;;19.70;99.90;;;;;;5036064;28;20258;-90
2022/05/26 12:12:22;;;;;;;1.58;0.82;;;19.60;99.90;;;;;;5035894;28;20189;-90
2022/05/26 12:14:52;;;;;;;1.95;0.80;;;19.50;99.90;;;;;;5038726;28;20294;-90
2022/05/26 12:17:49;;;;;;;1.13;0.95;;;19.50;99.90;;;;;;5039269;28;20170;-90
2022/05/26 12:20:15;;;;;;;2.15;1.08;;;19.50;99.90;;;;;;5033837;28;20205;-90
2022/05/26 12:23:04;;;;;;;2.08;0.90;;;19.60;99.90;;;;;;5028459;28;20171;-91
2022/05/26 12:25:41;;;;;;;2.03;0.90;;;19.60;99.90;;;;;;5039034;28;20240;-90
2022/05/26 12:29:02;;;;;;;1.08;0.95;;;19.70;99.90;;;;;;5030602;28;20175;-91
2022/05/26 12:31:35;;;;;;;1.42;0.80;;;19.70;99.90;;;;;;5026510;28;20190;-89
2022/05/26 12:34:21;;;;;;;2.03;0.95;;;19.80;99.90;;;;;;5018184;28;20289;-90
2022/05/26 12:36:58;;;;;;;1.90;1.00;;;20.00;99.90;;;;;;5047166;28;20265;-89
2022/05/26 12:40:00;;;;;;;1.10;0.85;;;20.10;99.90;;;;;;5035313;28;20179;-89
2022/05/26 12:43:08;;;;;;;1.02;0.95;;;20.30;99.90;;;;;;5000660;28;20253;-89
2022/05/26 12:46:13;;;;;;;1.92;1.00;;;20.60;99.90;;;;;;5016028;28;20217;-90
2022/05/26 12:49:01;;;;;;;1.98;1.05;;;20.80;99.90;;;;;;5015458;28;20221;-89
2022/05/26 12:51:34;;;;;;;1.83;0.90;;;20.90;99.90;;;;;;5014877;28;20217;-90
2022/05/26 12:54:05;;;;;;;1.77;1.02;;;20.90;99.90;;;;;;4998574;28;20225;-89
2022/05/26 12:56:45;;;;;;;1.55;0.80;;;20.90;99.90;;;;;;5014864;28;20193;-90
2022/05/26 12:59:15;;;;;;;1.83;0.93;;;21.10;99.90;;;;;;5026353;28;20178;-91
2022/05/26 13:01:41;;;;;;;1.23;0.80;;;21.40;99.90;;;;;;5018369;28;20266;-90
2022/05/26 13:04:13;;;;;;;1.38;0.80;;;21.60;99.90;;;;;;5019817;28;20272;-86
2022/05/26 13:06:43;;;;;;;0.70;0.70;;;21.70;99.90;;;;;;5013580;23;20228;-39
2022/05/26 13:09:25;;;;;;;1.70;1.00;;;22.10;99.90;;;;;;4993889;28;20179;-40
2022/05/26 13:11:54;;;;;;;1.52;0.70;;;22.30;99.90;;;;;;4976290;28;20250;-40
2022/05/26 13:14:47;;;;;;;2.08;0.82;;;22.10;99.90;;;;;;4992503;28;20176;-41
2022/05/26 13:17:15;;;;;;;1.45;0.80;;;22.00;99.90;;;;;;4992497;28;20195;-43
2022/05/26 13:19:53;;;;;;;1.23;0.80;;;22.00;99.90;;;;;;5031537;23;20258;-35
2022/05/26 13:22:33;;;;;;;2.22;0.60;;;22.40;99.90;;;;;;5011738;28;20182;-34
2022/05/26 13:25:04;;;;;;;1.70;1.00;;;22.90;99.90;;;;;;5011890;28;20230;-34
2022/05/26 13:27:44;;;;;;;1.13;0.80;;;23.30;99.90;;;;;;5011775;28;20219;-34
2022/05/26 13:33:11;;;;;;;1.13;0.98;;;24.20;99.80;;;;;;4993853;28;20188;-34
2022/05/26 13:35:48;;;;;;;1.83;0.73;;;24.40;99.90;;;;;;4992162;28;20175;-35
2022/05/26 13:38:21;;;;;;;1.30;0.60;;;24.50;99.80;;;;;;4992378;28;20195;-34
2022/05/26 13:40:47;;;;;;;1.00;0.70;;;24.90;99.60;;;;;;4992448;28;20195;-34
2022/05/26 13:43:15;;;;;;;1.65;0.90;;;24.90;99.30;;;;;;4991470;28;20291;-34
2022/05/26 13:45:42;;;;;;;1.60;1.00;;;25.10;98.70;;;;;;4975822;28;20259;-35
2022/05/26 13:48:34;;;;;;;1.08;0.73;;;25.50;98.60;;;;;;4992707;28;20204;-34
2022/05/26 13:51:03;;;;;;;1.27;0.90;;;25.70;98.60;;;;;;4976784;28;20172;-34
2022/05/26 13:53:32;;;;;;;0.95;0.70;;;25.70;96.70;;;;;;4992537;28;20204;-34
2022/05/26 13:56:06;;;;;;;1.75;0.98;;;25.50;97.00;;;;;;5006490;28;20195;-34
2022/05/26 13:58:33;;;;;;;2.17;0.88;;;25.40;96.70;;;;;;5007787;28;20286;-34
2022/05/26 14:01:06;;;;;;;1.23;0.88;;;25.10;97.30;;;;;;5002773;28;20310;-34
2022/05/26 14:03:37;;;;;;;0.93;0.80;;;25.30;96.80;;;;;;5010596;28;20179;-35
2022/05/26 14:06:05;;;;;;;1.45;1.10;;;25.30;98.10;;;;;;5009246;28;20218;-34
2022/05/26 14:08:32;;;;;;;1.30;0.80;;;25.40;97.50;;;;;;5010841;28;20211;-35
2022/05/26 14:10:59;;;;;;;1.77;0.90;;;25.50;97.10;;;;;;5005309;28;20188;-34